Time;durP1;ratioP1;P1;durP2;ratioP2;P2;SDS_P1;SDS_P2;PMS_P1;PMS_P2;Temp;Humidity;BMP_temperature;BMP_pressure;BME280_temperature;BME280_humidity;BME280_pressure;Samples;Min_cycle;Max_cycle;Signal;HPM_P1;HPM_P2
2023/05/02 00:01:19;;;;;;;23.77;18.35;;;;;;;13.40;68.22;101707.47;7391119;19;20379;-60
2023/05/02 00:03:47;;;;;;;25.48;19.35;;;;;;;13.38;68.41;101702.22;7394373;19;20037;-61
2023/05/02 00:06:14;;;;;;;25.95;19.30;;;;;;;13.39;68.36;101701.31;7395470;19;20022;-61
2023/05/02 00:08:41;;;;;;;24.98;18.25;;;;;;;13.40;68.25;101700.34;7395938;19;20036;-60
2023/05/02 00:11:08;;;;;;;25.38;18.67;;;;;;;13.45;68.16;101696.50;7393934;19;20039;-60
2023/05/02 00:13:35;;;;;;;26.02;18.42;;;;;;;13.44;68.43;101700.13;7394638;19;20023;-61
2023/05/02 00:16:02;;;;;;;25.30;18.10;;;;;;;13.44;68.31;101700.13;7394146;19;20024;-60
2023/05/02 00:18:30;;;;;;;24.73;18.45;;;;;;;13.45;68.51;101704.47;7395301;19;20022;-60
2023/05/02 00:20:56;;;;;;;25.55;17.70;;;;;;;13.48;68.23;101704.25;7393915;19;20015;-60
2023/05/02 00:23:23;;;;;;;26.40;19.23;;;;;;;13.46;68.62;101701.69;7393433;19;20122;-59
2023/05/02 00:25:50;;;;;;;26.23;19.02;;;;;;;13.47;68.50;101706.09;7396196;19;20037;-60
2023/05/02 00:28:17;;;;;;;22.60;17.33;;;;;;;13.43;68.46;101701.06;7394225;19;20391;-60
2023/05/02 00:30:45;;;;;;;25.65;17.20;;;;;;;13.42;68.60;101708.19;7392634;19;20022;-60
2023/05/02 00:33:14;;;;;;;24.73;17.25;;;;;;;13.38;68.83;101712.03;7395390;19;20026;-60
2023/05/02 00:35:41;;;;;;;23.70;17.58;;;;;;;13.39;68.62;101709.28;7395233;19;20018;-60
2023/05/02 00:38:08;;;;;;;23.17;17.08;;;;;;;13.35;68.94;101705.09;7394939;19;20022;-61
2023/05/02 00:40:43;;;;;;;22.27;16.77;;;;;;;13.34;68.87;101703.41;7393064;19;20015;-60
2023/05/02 00:43:11;;;;;;;23.38;17.05;;;;;;;13.34;68.77;101711.38;7394051;19;20086;-60
2023/05/02 00:45:42;;;;;;;22.92;16.58;;;;;;;13.34;68.93;101710.53;7392772;19;20018;-60
2023/05/02 00:48:12;;;;;;;21.95;15.77;;;;;;;13.38;68.30;101702.22;7394823;19;20010;-60
2023/05/02 00:50:41;;;;;;;22.05;16.10;;;;;;;13.41;68.41;101711.81;7389667;19;20032;-59
2023/05/02 00:53:09;;;;;;;22.70;16.38;;;;;;;13.41;68.64;101712.66;7395447;19;20022;-59
2023/05/02 00:55:37;;;;;;;23.42;15.77;;;;;;;13.34;68.91;101710.53;7394271;19;20022;-60
2023/05/02 00:58:09;;;;;;;20.73;15.18;;;;;;;13.33;68.71;101709.69;7394549;19;20014;-60
2023/05/02 01:01:14;;;;;;;24.23;14.88;;;;;;;13.35;68.99;101715.75;7391943;19;20011;-60
2023/05/02 01:03:51;;;;;;;20.48;14.60;;;;;;;13.27;69.23;101717.25;7393509;19;20053;-61
2023/05/02 01:06:40;;;;;;;22.63;15.23;;;;;;;13.29;69.56;101708.22;7393671;19;20015;-61
2023/05/02 01:09:36;;;;;;;20.60;14.35;;;;;;;13.28;69.07;101714.50;7391746;19;20019;-61
2023/05/02 01:12:09;;;;;;;19.88;14.25;;;;;;;13.23;69.36;101718.38;7393626;19;20562;-61
2023/05/02 01:14:41;;;;;;;20.70;14.10;;;;;;;13.25;69.46;101724.50;7394543;19;20014;-61
2023/05/02 01:17:11;;;;;;;20.63;13.43;;;;;;;13.26;69.61;101713.75;7393557;19;20015;-61
2023/05/02 01:19:44;;;;;;;19.75;13.00;;;;;;;13.21;69.83;101726.47;7393246;19;20022;-61
2023/05/02 01:22:13;;;;;;;20.25;13.77;;;;;;;13.15;70.12;101730.41;7393087;19;20019;-61
2023/05/02 01:24:54;;;;;;;19.75;12.32;;;;;;;13.17;70.52;101722.34;7393501;19;20018;-61
2023/05/02 01:27:35;;;;;;;19.48;13.20;;;;;;;13.22;70.49;101730.84;7393741;19;20367;-61
2023/05/02 01:30:05;;;;;;;18.15;12.43;;;;;;;13.10;71.06;101732.53;7392485;19;20478;-60
2023/05/02 01:32:36;;;;;;;19.80;12.25;;;;;;;13.06;71.79;101738.19;7393657;19;20635;-60
2023/05/02 01:35:05;;;;;;;18.02;11.48;;;;;;;13.02;71.83;101734.88;7393100;19;20031;-59
2023/05/02 01:37:33;;;;;;;15.23;10.02;;;;;;;12.95;72.40;101751.34;7392799;19;20015;-60
2023/05/02 01:40:03;;;;;;;17.27;10.20;;;;;;;12.76;74.04;101744.59;7391784;19;20498;-60
2023/05/02 01:42:32;;;;;;;15.80;9.50;;;;;;;12.75;74.29;101748.22;7392816;19;20036;-60
2023/05/02 01:45:03;;;;;;;14.63;8.70;;;;;;;12.73;74.59;101743.97;7392803;19;20011;-60
2023/05/02 01:47:32;;;;;;;13.52;7.68;;;;;;;12.71;74.96;101753.84;7390822;19;20010;-60
2023/05/02 01:50:02;;;;;;;11.27;6.18;;;;;;;12.69;74.67;101754.78;7389973;19;20090;-60
2023/05/02 01:52:29;;;;;;;11.05;6.05;;;;;;;12.58;75.34;101764.44;7391204;19;20382;-60
2023/05/02 01:54:59;;;;;;;10.88;5.40;;;;;;;12.60;75.30;101767.84;7392758;19;20039;-60
2023/05/02 01:57:26;;;;;;;10.75;5.45;;;;;;;12.61;74.96;101765.06;7392817;19;20047;-60
2023/05/02 01:59:58;;;;;;;7.60;3.65;;;;;;;12.58;74.69;101775.91;7390227;19;20158;-60
2023/05/02 02:02:28;;;;;;;7.82;3.70;;;;;;;12.47;74.32;101781.06;7391978;19;20019;-60
2023/05/02 02:04:58;;;;;;;7.03;3.53;;;;;;;12.50;73.72;101786.19;7390255;19;20023;-60
2023/05/02 02:07:25;;;;;;;5.68;2.95;;;;;;;12.40;73.99;101788.59;7392530;19;20040;-60
2023/05/02 02:09:52;;;;;;;5.40;2.65;;;;;;;12.42;73.57;101789.34;7390577;19;20086;-61
2023/05/02 02:12:25;;;;;;;5.43;2.67;;;;;;;12.44;73.53;101789.25;7390648;19;20086;-61
2023/05/02 02:15:00;;;;;;;5.65;2.45;;;;;;;12.40;73.58;101793.03;7391358;19;20015;-61
2023/05/02 02:17:38;;;;;;;4.88;2.85;;;;;;;12.44;73.70;101802.53;7392689;19;20010;-60
2023/05/02 02:20:08;;;;;;;4.72;2.33;;;;;;;12.38;73.88;101800.28;7389974;19;20025;-60
2023/05/02 02:22:38;;;;;;;4.88;2.20;;;;;;;12.38;73.78;101805.59;7391412;19;20014;-61
2023/05/02 02:25:09;;;;;;;4.82;1.95;;;;;;;12.30;73.60;101822.00;7391094;19;20348;-60
2023/05/02 02:27:37;;;;;;;2.40;1.30;;;;;;;12.12;73.04;101825.81;7392362;19;20022;-60
2023/05/02 02:30:04;;;;;;;4.20;1.40;;;;;;;12.08;72.24;101819.84;7388203;19;20032;-59
2023/05/02 02:32:31;;;;;;;2.30;1.27;;;;;;;11.89;71.48;101833.41;7391424;19;20010;-59
2023/05/02 02:35:00;;;;;;;3.42;1.30;;;;;;;11.89;71.04;101838.72;7390586;19;20467;-60
2023/05/02 02:37:50;;;;;;;4.53;1.45;;;;;;;11.86;70.33;101843.38;7391358;19;20018;-60
2023/05/02 02:40:41;;;;;;;3.80;1.40;;;;;;;11.93;69.69;101837.59;7389707;19;20014;-60
2023/05/02 02:43:35;;;;;;;7.50;1.73;;;;;;;11.84;70.01;101846.13;7390589;19;20022;-58
2023/05/02 02:46:04;;;;;;;8.52;1.95;;;;;;;11.83;70.18;101849.75;7390417;19;20014;-59
2023/05/02 02:48:42;;;;;;;6.30;2.25;;;;;;;11.86;69.48;101857.50;7389373;19;20043;-60
2023/05/02 02:51:14;;;;;;;8.73;2.00;;;;;;;11.89;69.01;101865.28;7389547;19;20011;-60
2023/05/02 02:53:57;;;;;;;7.65;2.60;;;;;;;11.81;68.99;101872.81;7391214;19;20026;-61
2023/05/02 02:56:33;;;;;;;8.85;2.38;;;;;;;11.65;69.45;101875.56;7389951;19;20029;-61
2023/05/02 02:59:08;;;;;;;12.70;3.08;;;;;;;11.69;69.18;101881.53;7390519;19;20475;-61
2023/05/02 03:01:38;;;;;;;10.45;3.15;;;;;;;11.70;68.75;101884.09;7389439;19;20025;-61
2023/05/02 03:04:07;;;;;;;14.35;2.90;;;;;;;11.74;68.33;101890.06;7389738;19;20018;-60
2023/05/02 03:06:35;;;;;;;12.23;3.22;;;;;;;11.73;68.29;101895.47;7389356;19;20023;-60
2023/05/02 03:09:03;;;;;;;13.07;3.45;;;;;;;11.78;68.18;101891.59;7390072;19;20498;-60
2023/05/02 03:11:30;;;;;;;12.98;3.75;;;;;;;11.67;68.35;101894.03;7388197;19;20014;-59
2023/05/02 03:13:57;;;;;;;13.10;3.63;;;;;;;11.76;68.28;101897.94;7390925;19;20011;-60
2023/05/02 03:16:30;;;;;;;14.57;3.67;;;;;;;11.71;68.09;101906.16;7390220;19;20014;-60
2023/05/02 03:18:57;;;;;;;14.10;4.10;;;;;;;11.63;68.28;101903.97;7389374;19;20506;-60
2023/05/02 03:21:24;;;;;;;19.60;4.25;;;;;;;11.56;67.95;101923.88;7390281;19;20092;-59
2023/05/02 03:23:51;;;;;;;19.33;4.10;;;;;;;11.55;67.68;101927.44;7388268;19;20029;-59
2023/05/02 03:26:18;;;;;;;18.65;4.90;;;;;;;11.53;67.49;101941.78;7389927;19;20102;-59
2023/05/02 03:28:46;;;;;;;20.35;4.05;;;;;;;11.40;67.07;101934.50;7389469;19;20043;-60
2023/05/02 03:31:13;;;;;;;16.85;4.30;;;;;;;11.39;66.43;101943.41;7388882;19;20023;-60
2023/05/02 03:33:40;;;;;;;15.48;3.80;;;;;;;11.35;66.23;101947.19;7397424;19;20045;-60
2023/05/02 03:36:07;;;;;;;17.40;4.03;;;;;;;11.35;66.20;101954.28;7397299;19;20014;-60
2023/05/02 03:38:34;;;;;;;19.35;4.15;;;;;;;11.28;65.61;101953.78;7396820;19;20320;-60
2023/05/02 03:41:02;;;;;;;19.10;3.80;;;;;;;11.18;65.14;101965.84;7391765;19;20015;-60
2023/05/02 03:43:29;;;;;;;17.33;4.20;;;;;;;11.17;65.39;101969.44;7393688;19;20018;-61
2023/05/02 03:45:57;;;;;;;15.43;4.20;;;;;;;11.19;64.95;101971.09;7396972;19;20023;-60
2023/05/02 03:48:24;;;;;;;20.15;5.18;;;;;;;11.12;65.28;101971.50;7395663;19;20014;-61
2023/05/02 03:50:51;;;;;;;22.25;4.95;;;;;;;11.15;64.91;101979.31;7393303;19;20011;-60
2023/05/02 03:53:18;;;;;;;19.92;5.18;;;;;;;11.14;64.37;101977.56;7396782;19;20022;-61
2023/05/02 03:55:45;;;;;;;17.52;4.30;;;;;;;11.22;63.99;101984.16;7396291;19;20018;-61
2023/05/02 03:58:12;;;;;;;17.45;4.47;;;;;;;11.10;63.52;101991.94;7395800;19;20014;-61
2023/05/02 04:00:39;;;;;;;15.73;4.25;;;;;;;11.05;63.73;101986.91;7389205;19;20018;-60
2023/05/02 04:03:06;;;;;;;18.70;4.95;;;;;;;11.04;63.33;102002.91;7394111;19;20043;-60
2023/05/02 04:05:33;;;;;;;13.93;3.83;;;;;;;10.91;63.59;102008.00;7395962;19;20011;-61
2023/05/02 04:08:01;;;;;;;23.20;4.78;;;;;;;11.01;62.87;102011.88;7396604;19;20045;-60
2023/05/02 04:10:28;;;;;;;24.33;4.60;;;;;;;11.05;62.77;102008.09;7394063;19;20043;-61
2023/05/02 04:12:55;;;;;;;18.38;4.22;;;;;;;11.03;62.42;102015.31;7396832;19;20088;-59
2023/05/02 04:15:22;;;;;;;16.10;4.00;;;;;;;11.07;62.09;102016.00;7395491;19;20022;-59
2023/05/02 04:17:49;;;;;;;16.70;4.25;;;;;;;11.00;62.11;102027.88;7396085;19;20491;-59
2023/05/02 04:20:16;;;;;;;22.13;4.40;;;;;;;11.06;61.63;102031.03;7392121;19;20022;-59
2023/05/02 04:22:43;;;;;;;14.60;3.50;;;;;;;11.02;61.58;102049.84;7396101;19;20036;-60
2023/05/02 04:25:10;;;;;;;15.27;3.95;;;;;;;10.94;61.73;102042.31;7391468;19;20078;-59
2023/05/02 04:27:37;;;;;;;15.45;3.70;;;;;;;10.95;61.66;102047.53;7395645;19;20022;-59
2023/05/02 04:30:05;;;;;;;17.75;4.07;;;;;;;11.02;61.36;102045.38;7394045;19;20130;-59
2023/05/02 04:32:32;;;;;;;16.52;4.68;;;;;;;11.01;61.36;102043.69;7393797;19;20022;-59
2023/05/02 04:35:00;;;;;;;14.13;3.85;;;;;;;10.99;61.25;102053.53;7395003;19;20018;-59
2023/05/02 04:37:27;;;;;;;17.42;4.55;;;;;;;10.98;61.29;102055.28;7394747;19;20501;-60
2023/05/02 04:39:54;;;;;;;18.05;4.47;;;;;;;11.06;60.96;102056.69;7393536;19;20015;-60
2023/05/02 04:42:22;;;;;;;15.35;4.22;;;;;;;11.14;60.77;102062.41;7394027;19;20106;-60
2023/05/02 04:44:49;;;;;;;19.50;4.40;;;;;;;11.10;60.76;102067.03;7393367;19;20483;-60
2023/05/02 04:47:16;;;;;;;18.92;4.72;;;;;;;11.06;60.50;102078.72;7393325;19;20047;-61
2023/05/02 04:49:43;;;;;;;17.25;4.25;;;;;;;11.02;60.69;102079.84;7392867;19;20446;-60
2023/05/02 04:52:10;;;;;;;18.00;4.50;;;;;;;11.04;60.78;102079.78;7395768;19;20026;-60
2023/05/02 04:54:37;;;;;;;13.75;3.63;;;;;;;11.08;60.34;102087.47;7394779;19;20054;-60
2023/05/02 04:57:06;;;;;;;19.92;4.40;;;;;;;11.09;60.32;102088.31;7393129;19;20056;-60
2023/05/02 04:59:34;;;;;;;15.02;4.32;;;;;;;10.99;59.97;102098.59;7392686;19;20018;-60
2023/05/02 05:02:01;;;;;;;18.92;4.72;;;;;;;11.03;59.83;102104.56;7394337;19;20022;-61
2023/05/02 05:04:28;;;;;;;15.63;4.32;;;;;;;11.09;59.40;102110.38;7392659;19;20357;-60
2023/05/02 05:06:55;;;;;;;14.77;4.03;;;;;;;10.91;59.43;102116.66;7394508;19;20131;-60
2023/05/02 05:09:22;;;;;;;13.80;4.25;;;;;;;10.84;59.51;102126.75;7392992;19;20477;-60
2023/05/02 05:11:49;;;;;;;18.88;4.32;;;;;;;10.89;59.17;102127.38;7394378;19;20049;-61
2023/05/02 05:14:16;;;;;;;23.58;4.30;;;;;;;10.68;59.54;102128.47;7393408;19;20031;-61
2023/05/02 05:16:43;;;;;;;16.88;4.22;;;;;;;10.70;59.50;102130.13;7393548;19;20022;-63
2023/05/02 05:19:11;;;;;;;15.05;3.80;;;;;;;10.75;59.83;102137.81;7393421;19;20023;-63
2023/05/02 05:21:38;;;;;;;16.23;4.25;;;;;;;10.90;59.40;102138.81;7393077;19;20026;-63
2023/05/02 05:24:05;;;;;;;12.10;3.47;;;;;;;10.92;59.22;102147.56;7392729;19;20011;-64
2023/05/02 05:26:32;;;;;;;18.00;4.15;;;;;;;10.85;58.92;102149.66;7393000;19;20018;-63
2023/05/02 05:28:59;;;;;;;17.30;3.75;;;;;;;10.70;59.04;102150.47;7394222;19;20029;-63
2023/05/02 05:31:26;;;;;;;13.02;3.88;;;;;;;10.68;59.16;102160.28;7393305;19;20027;-64
2023/05/02 05:33:54;;;;;;;14.40;3.78;;;;;;;10.79;58.91;102162.38;7394682;19;20427;-63
2023/05/02 05:36:21;;;;;;;17.10;3.72;;;;;;;10.79;58.89;102160.56;7393267;19;20022;-64
2023/05/02 05:38:50;;;;;;;21.58;4.20;;;;;;;10.94;58.42;102164.22;7393110;19;20010;-64
2023/05/02 05:41:17;;;;;;;17.85;4.38;;;;;;;10.83;58.82;102164.78;7393907;19;20018;-64
2023/05/02 05:43:44;;;;;;;14.45;3.80;;;;;;;10.72;59.17;102173.31;7392950;19;20019;-62
2023/05/02 05:46:11;;;;;;;15.48;3.20;;;;;;;10.76;58.58;102181.06;7392743;19;20018;-62
2023/05/02 05:48:38;;;;;;;15.50;3.53;;;;;;;10.73;58.57;102190.06;7393452;19;20015;-64
2023/05/02 05:51:06;;;;;;;12.77;3.30;;;;;;;10.77;58.71;102191.59;7391666;19;20086;-64
2023/05/02 05:53:33;;;;;;;15.75;3.45;;;;;;;10.86;58.69;102204.38;7392307;19;20037;-63
2023/05/02 05:56:08;;;;;;;16.55;4.00;;;;;;;10.85;59.00;102207.97;7391056;19;20047;-65
2023/05/02 05:58:37;;;;;;;18.00;4.05;;;;;;;10.84;58.78;102210.72;7391606;19;20018;-64
2023/05/02 06:01:05;;;;;;;16.65;3.67;;;;;;;10.79;57.80;102212.72;7391290;19;20070;-65
2023/05/02 06:03:32;;;;;;;14.70;3.70;;;;;;;10.75;57.65;102209.38;7392549;19;20021;-63
2023/05/02 06:05:59;;;;;;;16.35;3.30;;;;;;;10.77;57.08;102223.41;7391999;19;20046;-63
2023/05/02 06:08:29;;;;;;;12.65;2.80;;;;;;;10.73;56.42;102225.34;7393122;19;20019;-64
2023/05/02 06:10:56;;;;;;;13.65;3.35;;;;;;;10.60;56.65;102233.97;7392483;19;20010;-63
2023/05/02 06:13:23;;;;;;;9.75;2.90;;;;;;;10.60;56.01;102231.34;7392421;19;20015;-67
2023/05/02 06:15:50;;;;;;;12.45;2.97;;;;;;;10.54;54.94;102237.81;7391606;19;20082;-64
2023/05/02 06:18:17;;;;;;;15.90;2.92;;;;;;;10.54;54.62;102240.47;7392813;19;20018;-65
2023/05/02 06:20:44;;;;;;;16.25;3.28;;;;;;;10.68;54.41;102247.69;7389784;19;20018;-66
2023/05/02 06:23:11;;;;;;;13.88;3.40;;;;;;;10.64;53.88;102252.28;7392021;19;20031;-67
2023/05/02 06:25:39;;;;;;;11.20;3.20;;;;;;;10.68;53.75;102256.53;7388071;19;20018;-66
2023/05/02 06:28:06;;;;;;;14.57;3.55;;;;;;;10.70;53.58;102257.28;7390694;19;20508;-66
2023/05/02 06:30:33;;;;;;;14.50;3.17;;;;;;;10.66;53.19;102266.34;7389369;19;20047;-66
2023/05/02 06:33:03;;;;;;;15.18;3.08;;;;;;;10.60;53.01;102271.94;7392151;19;20051;-65
2023/05/02 06:35:30;;;;;;;15.45;3.22;;;;;;;10.61;53.06;102265.72;7391794;19;20364;-65
2023/05/02 06:37:57;;;;;;;13.82;2.70;;;;;;;10.59;52.18;102269.38;7390859;19;20060;-64
2023/05/02 06:40:24;;;;;;;12.07;2.80;;;;;;;10.73;51.94;102282.78;7391889;19;20107;-65
2023/05/02 06:42:51;;;;;;;10.38;3.00;;;;;;;10.76;51.92;102280.00;7391185;19;20043;-66
2023/05/02 06:45:18;;;;;;;11.80;2.92;;;;;;;10.80;51.33;102281.56;7390282;19;20022;-65
2023/05/02 06:47:45;;;;;;;12.02;2.53;;;;;;;10.83;50.84;102285.81;7388803;19;20021;-65
2023/05/02 06:50:15;;;;;;;9.68;2.42;;;;;;;10.84;50.88;102291.06;7389758;19;20022;-64
2023/05/02 06:52:42;;;;;;;11.07;2.85;;;;;;;10.95;50.88;102296.69;7387063;19;20503;-64
2023/05/02 06:55:09;;;;;;;10.38;2.80;;;;;;;11.03;50.25;102300.72;7390013;19;20034;-64
2023/05/02 06:57:36;;;;;;;9.60;2.90;;;;;;;10.94;50.09;102302.03;7390021;19;20018;-64
2023/05/02 07:00:04;;;;;;;12.85;3.25;;;;;;;10.98;50.31;102299.16;7389361;19;20098;-62
2023/05/02 07:02:31;;;;;;;15.00;3.10;;;;;;;11.01;50.07;102308.75;7390996;19;20043;-62
2023/05/02 07:04:58;;;;;;;14.75;3.50;;;;;;;10.88;49.48;102313.81;7387058;19;20039;-63
2023/05/02 07:07:25;;;;;;;16.33;3.45;;;;;;;10.89;49.75;102315.53;7389114;19;20019;-62
2023/05/02 07:09:52;;;;;;;12.60;2.90;;;;;;;10.88;49.74;102313.81;7391142;19;20090;-62
2023/05/02 07:12:20;;;;;;;17.45;3.33;;;;;;;10.85;49.56;102319.28;7391000;19;20043;-62
2023/05/02 07:14:47;;;;;;;11.10;2.95;;;;;;;10.83;48.75;102322.91;7390949;19;20022;-62
2023/05/02 07:17:14;;;;;;;12.80;3.17;;;;;;;10.89;48.74;102331.44;7387699;19;20043;-60
2023/05/02 07:19:41;;;;;;;12.85;3.13;;;;;;;10.71;48.49;102333.19;7390666;19;20018;-62
2023/05/02 07:22:11;;;;;;;9.38;2.97;;;;;;;10.78;47.83;102336.41;7390635;19;20054;-61
2023/05/02 07:24:41;;;;;;;11.48;3.13;;;;;;;10.86;47.51;102352.78;7387784;19;20022;-62
2023/05/02 07:27:09;;;;;;;10.63;2.67;;;;;;;10.88;47.38;102347.44;7389050;19;20026;-61
2023/05/02 07:29:36;;;;;;;10.13;2.70;;;;;;;11.02;46.71;102352.03;7390246;19;20014;-61
2023/05/02 07:32:04;;;;;;;10.70;2.80;;;;;;;11.16;46.47;102358.34;7388737;19;20018;-61
2023/05/02 07:34:31;;;;;;;11.75;3.10;;;;;;;11.27;46.10;102349.88;7390388;19;20502;-62
2023/05/02 07:36:59;;;;;;;15.88;3.42;;;;;;;11.41;46.14;102363.28;7389043;19;20029;-61
2023/05/02 07:39:32;;;;;;;12.55;3.28;;;;;;;11.53;46.12;102367.09;7390559;19;20373;-62
2023/05/02 07:41:59;;;;;;;9.90;2.97;;;;;;;11.51;45.71;102365.44;7390056;19;20042;-61
2023/05/02 07:44:26;;;;;;;12.73;2.97;;;;;;;11.47;45.41;102367.41;7388277;19;20041;-62
2023/05/02 07:46:57;;;;;;;12.68;3.38;;;;;;;11.40;44.34;102368.66;7388758;19;20026;-62
2023/05/02 07:49:27;;;;;;;13.35;3.10;;;;;;;11.30;44.47;102372.72;7388142;19;20019;-62
2023/05/02 07:51:55;;;;;;;9.48;2.63;;;;;;;11.28;44.66;102374.59;7389601;19;20007;-61
2023/05/02 07:54:26;;;;;;;16.83;2.92;;;;;;;11.41;44.60;102378.34;7388446;19;20039;-61
2023/05/02 07:56:57;;;;;;;9.23;2.90;;;;;;;11.31;44.25;102377.94;7387901;19;20026;-63
2023/05/02 07:59:24;;;;;;;10.90;2.60;;;;;;;11.27;44.39;102379.03;7389262;19;20047;-61
2023/05/02 08:01:51;;;;;;;11.25;2.47;;;;;;;11.25;44.85;102383.53;7387888;19;20547;-61
2023/05/02 08:04:18;;;;;;;10.00;3.08;;;;;;;11.26;44.62;102385.28;7389288;19;20026;-62
2023/05/02 08:06:45;;;;;;;14.40;3.35;;;;;;;11.26;44.89;102379.97;7388572;19;20026;-63
2023/05/02 08:09:12;;;;;;;15.23;3.28;;;;;;;11.31;45.00;102383.25;7387357;19;20029;-66
2023/05/02 08:11:39;;;;;;;11.55;3.35;;;;;;;11.38;45.09;102386.44;7389560;19;20086;-66
2023/05/02 08:14:07;;;;;;;11.38;3.47;;;;;;;11.39;45.11;102394.31;7388014;19;20039;-65
2023/05/02 08:16:34;;;;;;;9.77;3.10;;;;;;;11.36;45.54;102391.81;7388342;19;20539;-66
2023/05/02 08:19:01;;;;;;;11.20;3.22;;;;;;;11.34;45.70;102399.00;7396370;19;20082;-66
2023/05/02 08:21:28;;;;;;;11.27;3.00;;;;;;;11.37;46.21;102403.28;7396162;19;20023;-61
2023/05/02 08:23:59;;;;;;;10.80;3.08;;;;;;;11.37;46.40;102409.47;7394501;19;20204;-61
2023/05/02 08:26:27;;;;;;;12.30;3.50;;;;;;;11.37;46.51;102403.28;7395326;19;20504;-60
2023/05/02 08:28:54;;;;;;;12.15;3.33;;;;;;;11.45;46.31;102412.59;7396746;19;20017;-62
2023/05/02 08:31:21;;;;;;;14.93;3.38;;;;;;;11.40;46.83;102411.94;7394892;19;20014;-61
2023/05/02 08:33:52;;;;;;;11.10;2.97;;;;;;;11.46;46.78;102416.09;7396342;19;20096;-60
2023/05/02 08:36:21;;;;;;;11.43;2.92;;;;;;;11.42;46.93;102414.53;7394824;19;20082;-60
2023/05/02 08:38:48;;;;;;;12.00;2.90;;;;;;;11.54;46.36;102415.72;7395641;19;20018;-60
2023/05/02 08:41:17;;;;;;;10.82;2.85;;;;;;;11.78;45.53;102421.53;7395360;19;20078;-60
2023/05/02 08:43:46;;;;;;;9.32;2.60;;;;;;;11.89;45.69;102425.38;7395948;19;20023;-59
2023/05/02 08:46:14;;;;;;;9.88;3.13;;;;;;;11.96;46.15;102415.31;7393055;19;20482;-59
2023/05/02 08:48:44;;;;;;;10.70;2.67;;;;;;;11.86;46.00;102422.03;7395208;19;20107;-59
2023/05/02 08:51:14;;;;;;;10.32;2.58;;;;;;;11.69;45.68;102422.88;7396008;19;20054;-60
2023/05/02 08:53:42;;;;;;;10.65;2.58;;;;;;;11.65;45.96;102424.84;7395403;19;20529;-60
2023/05/02 08:56:11;;;;;;;8.65;2.47;;;;;;;11.55;46.08;102431.53;7394862;19;20026;-64
2023/05/02 08:58:40;;;;;;;9.65;2.25;;;;;;;11.66;46.06;102431.84;7395061;19;20022;-62
2023/05/02 09:01:14;;;;;;;8.73;2.50;;;;;;;11.86;45.97;102433.50;7395525;19;20037;-59
2023/05/02 09:03:45;;;;;;;10.55;2.72;;;;;;;12.09;45.68;102436.75;7393444;19;20019;-62
2023/05/02 09:06:20;;;;;;;7.57;2.33;;;;;;;12.23;44.81;102439.53;7391172;19;20089;-62
2023/05/02 09:08:51;;;;;;;7.00;1.77;;;;;;;12.06;43.67;102453.72;7394642;19;20025;-66
2023/05/02 09:11:20;;;;;;;9.32;1.88;;;;;;;12.03;43.56;102445.91;7393347;19;20022;-63
2023/05/02 09:13:52;;;;;;;7.10;1.83;;;;;;;12.08;43.02;102446.50;7393147;19;20045;-64
2023/05/02 09:16:25;;;;;;;11.27;2.08;;;;;;;12.25;42.75;102445.63;7393669;19;20022;-63
2023/05/02 09:18:55;;;;;;;6.93;1.70;;;;;;;12.40;43.13;102447.47;7392421;19;20025;-65
2023/05/02 09:21:24;;;;;;;7.63;1.67;;;;;;;12.34;43.16;102447.78;7394301;19;20082;-64
2023/05/02 09:23:53;;;;;;;6.45;1.75;;;;;;;12.47;43.17;102447.97;7394271;19;20019;-63
2023/05/02 09:26:23;;;;;;;8.88;2.10;;;;;;;12.58;43.16;102455.34;7392398;19;20014;-64
2023/05/02 09:28:54;;;;;;;5.43;1.48;;;;;;;12.36;42.81;102455.66;7391546;19;20038;-64
2023/05/02 09:31:26;;;;;;;4.97;1.42;;;;;;;12.14;43.21;102455.97;7394403;19;20039;-64
2023/05/02 09:34:15;;;;;;;6.10;1.67;;;;;;;12.00;43.64;102455.84;7394169;19;20040;-64
2023/05/02 09:36:50;;;;;;;6.22;1.60;;;;;;;12.41;43.09;102451.84;7393294;19;20022;-64
2023/05/02 09:39:30;;;;;;;5.20;1.35;;;;;;;12.68;42.55;102448.59;7392169;19;20022;-64
2023/05/02 09:41:57;;;;;;;3.92;1.50;;;;;;;12.73;42.86;102461.63;7394611;19;20010;-64
2023/05/02 09:44:34;;;;;;;6.63;1.63;;;;;;;12.69;42.49;102463.59;7392084;19;20014;-64
2023/05/02 09:47:02;;;;;;;7.05;1.50;;;;;;;12.51;43.00;102460.16;7392684;19;20090;-64
2023/05/02 09:49:39;;;;;;;6.30;1.63;;;;;;;12.71;42.82;102466.19;7392428;19;20035;-63
2023/05/02 09:52:22;;;;;;;8.40;1.52;;;;;;;12.66;42.31;102471.75;7394003;19;20014;-62
2023/05/02 09:54:51;;;;;;;6.05;1.40;;;;;;;12.72;42.23;102474.06;7393346;19;20054;-62
2023/05/02 09:57:18;;;;;;;7.63;1.30;;;;;;;12.81;41.59;102481.53;7390419;19;20018;-62
2023/05/02 09:59:56;;;;;;;4.82;1.38;;;;;;;12.79;41.45;102480.78;7393303;19;20018;-62
2023/05/02 10:02:24;;;;;;;6.07;1.40;;;;;;;12.47;42.39;102479.00;7392331;19;20014;-63
2023/05/02 10:04:55;;;;;;;4.32;1.55;;;;;;;12.38;42.71;102483.03;7390748;19;20015;-63
2023/05/02 10:07:24;;;;;;;5.93;1.55;;;;;;;12.38;42.94;102497.16;7391859;19;20023;-62
2023/05/02 10:09:53;;;;;;;5.80;1.60;;;;;;;12.24;44.18;102499.69;7392254;19;20006;-63
2023/05/02 10:12:24;;;;;;;9.07;2.00;;;;;;;12.29;44.56;102504.78;7392878;19;20014;-62
2023/05/02 10:14:59;;;;;;;6.97;1.52;;;;;;;12.52;44.53;102508.88;7393072;19;20031;-63
2023/05/02 10:17:30;;;;;;;7.30;1.50;;;;;;;12.67;44.56;102503.56;7391393;19;20047;-62
2023/05/02 10:20:04;;;;;;;5.25;1.60;;;;;;;12.81;44.71;102504.59;7392070;19;20090;-63
2023/05/02 10:22:33;;;;;;;4.47;1.63;;;;;;;12.62;45.51;102502.09;7392702;19;20037;-63
2023/05/02 10:25:02;;;;;;;8.40;2.13;;;;;;;12.57;45.92;102505.00;7390354;19;20044;-64
2023/05/02 10:27:30;;;;;;;6.60;1.75;;;;;;;12.72;45.85;102499.81;7391181;19;20018;-64
2023/05/02 10:29:59;;;;;;;7.40;1.88;;;;;;;12.65;45.87;102515.22;7390260;19;20026;-64
2023/05/02 10:32:28;;;;;;;8.23;1.60;;;;;;;12.52;46.13;102519.50;7392401;19;20043;-64
2023/05/02 10:35:03;;;;;;;5.72;1.65;;;;;;;12.36;46.67;102528.28;7390401;19;20021;-64
2023/05/02 10:37:34;;;;;;;5.15;1.38;;;;;;;12.22;47.51;102532.59;7389416;19;20022;-62
2023/05/02 10:40:04;;;;;;;5.50;1.38;;;;;;;12.27;48.01;102527.88;7390073;19;20014;-62
2023/05/02 10:42:39;;;;;;;4.72;1.17;;;;;;;12.35;47.62;102533.66;7392267;19;20018;-63
2023/05/02 10:45:13;;;;;;;;;;;;;;;12.39;47.80;102529.91;7391316;19;20336;-62
2023/05/02 10:47:40;;;;;;;8.27;1.48;;;;;;;12.42;47.28;102535.91;7390489;19;20309;-63
2023/05/02 10:50:08;;;;;;;4.43;1.25;;;;;;;12.47;46.91;102534.81;7391353;19;20020;-65
2023/05/02 10:52:39;;;;;;;5.80;1.38;;;;;;;12.47;46.77;102535.66;7389884;19;20032;-65
2023/05/02 10:55:18;;;;;;;4.25;1.30;;;;;;;12.55;46.11;102543.22;7389543;19;20014;-65
2023/05/02 10:57:57;;;;;;;3.92;1.45;;;;;;;12.63;45.86;102538.34;7388189;19;20011;-65
2023/05/02 11:00:34;;;;;;;4.15;1.23;;;;;;;12.90;45.15;102541.34;7390940;19;20025;-64
2023/05/02 11:03:02;;;;;;;4.32;1.38;;;;;;;12.96;45.30;102540.13;7391749;19;20015;-60
2023/05/02 11:05:29;;;;;;;6.85;1.52;;;;;;;12.98;45.47;102533.78;7389977;19;20523;-60
2023/05/02 11:08:14;;;;;;;5.47;1.30;;;;;;;12.87;45.10;102541.50;7388920;19;20014;-60
2023/05/02 11:10:46;;;;;;;5.68;1.38;;;;;;;12.61;46.13;102542.91;7390763;19;20021;-60
2023/05/02 11:13:13;;;;;;;6.82;1.40;;;;;;;12.37;46.50;102534.44;7391307;19;20018;-60
2023/05/02 11:15:42;;;;;;;4.45;1.48;;;;;;;12.26;47.02;102553.59;7390488;19;20014;-64
2023/05/02 11:18:11;;;;;;;5.43;1.52;;;;;;;12.12;47.01;102556.09;7391620;19;20011;-57
2023/05/02 11:20:43;;;;;;;6.70;1.70;;;;;;;12.12;47.54;102564.06;7389327;19;20011;-56
2023/05/02 11:23:17;;;;;;;4.25;1.50;;;;;;;12.00;48.48;102570.88;7390082;19;20025;-57
2023/05/02 11:25:48;;;;;;;5.57;1.38;;;;;;;12.13;48.93;102576.41;7387573;19;20518;-57
2023/05/02 11:28:38;;;;;;;7.40;1.40;;;;;;;12.24;49.39;102578.50;7388291;19;20022;-57
2023/05/02 11:31:29;;;;;;;8.18;1.38;;;;;;;12.28;48.33;102582.72;7390084;19;20103;-59